Terminal Aerodrome Forecast
Issued by NWS

Home | Current Version | Previous Version | Text Only | Print | Product List | Glossary On
Versions: 1 2 3 4 5 6 7 8 9 10 11 12 13
000
FTUS44 KOUN 181136 CCA
TAFPNC
TAF COR
KPNC 181136Z 1812/1912 16006KT P6SM BKN060
     FM190300 15005KT P6SM OVC020
     FM190600 15005KT 5SM BR OVC008
     FM190900 15004KT 2SM -DZ BR OVC008
      TEMPO 1909/1912 1/2SM FG VV003
      AMD NOT SKED=

USA.gov is the U.S. government's official web portal to all federal, state and local government web resources and services.